Arthur, North Dakota
Current Conditions -  °F | °C
As of 2:53 AM on Sunday 26 Oct 2014 (Local Time) from KFAR Reporting Station
Clear Clear  
Wind Chill:   Ceiling: Unl
Heat Index:   Visibility: 10mi
Dew Point: -6°   Wind: 7mph
Humidity: 52%   Direction: 130°SE
Pressure: 29.97"   Gusts: NA
Location:  47.1°N, 97.22°W
Report Text: KFAR 260753Z 13006KT 10SM CLR 03/M06 A2997 RMK AO2 SLP152 T00281061
Loading
Personal Weather Stations






























Interactive Weather Map
Tropical Storm Tracking
New forecast layout! Learn more

10-Day Weather Forecast

Advertisements
Track Severe Weather on mobile